sensor_id;sensor_type;location;lat;lon;timestamp;temperature;humidity
8910;DHT22;4490;49.072;8.804;2023-02-10T00:01:05;-1.50;81.80
8910;DHT22;4490;49.072;8.804;2023-02-10T00:03:31;-1.50;82.00
8910;DHT22;4490;49.072;8.804;2023-02-10T00:05:58;-1.50;82.10
8910;DHT22;4490;49.072;8.804;2023-02-10T00:08:23;-1.50;82.10
8910;DHT22;4490;49.072;8.804;2023-02-10T00:10:49;-1.50;82.30
8910;DHT22;4490;49.072;8.804;2023-02-10T00:13:15;-1.50;82.40
8910;DHT22;4490;49.072;8.804;2023-02-10T00:15:40;-1.50;82.60
8910;DHT22;4490;49.072;8.804;2023-02-10T00:18:06;-1.50;82.80
8910;DHT22;4490;49.072;8.804;2023-02-10T00:20:32;-1.50;82.90
8910;DHT22;4490;49.072;8.804;2023-02-10T00:22:58;-1.50;83.00
8910;DHT22;4490;49.072;8.804;2023-02-10T00:25:23;-1.50;83.00
8910;DHT22;4490;49.072;8.804;2023-02-10T00:27:49;-1.50;83.50
8910;DHT22;4490;49.072;8.804;2023-02-10T00:30:14;-1.50;83.40
8910;DHT22;4490;49.072;8.804;2023-02-10T00:32:40;-1.50;83.50
8910;DHT22;4490;49.072;8.804;2023-02-10T00:35:07;-1.50;83.70
8910;DHT22;4490;49.072;8.804;2023-02-10T00:37:33;-1.50;84.50
8910;DHT22;4490;49.072;8.804;2023-02-10T00:39:59;-1.50;83.80
8910;DHT22;4490;49.072;8.804;2023-02-10T00:42:24;-1.50;84.00
8910;DHT22;4490;49.072;8.804;2023-02-10T00:44:50;-1.50;84.10
8910;DHT22;4490;49.072;8.804;2023-02-10T00:47:16;-1.50;84.20
8910;DHT22;4490;49.072;8.804;2023-02-10T00:49:42;-1.50;84.90
8910;DHT22;4490;49.072;8.804;2023-02-10T00:52:08;-1.50;84.10
8910;DHT22;4490;49.072;8.804;2023-02-10T00:54:33;-1.50;84.10
8910;DHT22;4490;49.072;8.804;2023-02-10T00:56:59;-1.50;84.90
8910;DHT22;4490;49.072;8.804;2023-02-10T00:59:25;-1.50;84.30
8910;DHT22;4490;49.072;8.804;2023-02-10T01:01:51;-1.50;84.40
8910;DHT22;4490;49.072;8.804;2023-02-10T01:04:16;-1.50;84.30
8910;DHT22;4490;49.072;8.804;2023-02-10T01:06:42;-1.50;84.30
8910;DHT22;4490;49.072;8.804;2023-02-10T01:09:07;-1.50;84.50
8910;DHT22;4490;49.072;8.804;2023-02-10T01:11:33;-1.50;84.60
8910;DHT22;4490;49.072;8.804;2023-02-10T01:13:59;-1.50;84.70
8910;DHT22;4490;49.072;8.804;2023-02-10T01:16:24;-1.60;84.70
8910;DHT22;4490;49.072;8.804;2023-02-10T01:18:50;-1.60;84.70
8910;DHT22;4490;49.072;8.804;2023-02-10T01:21:18;-1.60;84.70
8910;DHT22;4490;49.072;8.804;2023-02-10T01:23:45;-1.60;84.90
8910;DHT22;4490;49.072;8.804;2023-02-10T01:26:11;-1.70;85.00
8910;DHT22;4490;49.072;8.804;2023-02-10T01:28:41;-1.70;85.10
8910;DHT22;4490;49.072;8.804;2023-02-10T01:31:10;-1.60;85.00
8910;DHT22;4490;49.072;8.804;2023-02-10T01:33:36;-1.70;84.60
8910;DHT22;4490;49.072;8.804;2023-02-10T01:36:07;-1.70;84.60
8910;DHT22;4490;49.072;8.804;2023-02-10T01:38:33;-1.70;84.40
8910;DHT22;4490;49.072;8.804;2023-02-10T01:40:59;-1.70;84.50
8910;DHT22;4490;49.072;8.804;2023-02-10T01:43:25;-1.70;84.50
8910;DHT22;4490;49.072;8.804;2023-02-10T01:45:50;-1.70;84.60
8910;DHT22;4490;49.072;8.804;2023-02-10T01:48:16;-1.80;84.60
8910;DHT22;4490;49.072;8.804;2023-02-10T01:50:48;-1.80;84.60
8910;DHT22;4490;49.072;8.804;2023-02-10T01:53:16;-1.80;84.70
8910;DHT22;4490;49.072;8.804;2023-02-10T01:55:45;-1.80;84.60
8910;DHT22;4490;49.072;8.804;2023-02-10T01:58:15;-1.80;84.60
8910;DHT22;4490;49.072;8.804;2023-02-10T02:00:43;-1.90;84.40
8910;DHT22;4490;49.072;8.804;2023-02-10T02:03:09;-1.90;84.50
8910;DHT22;4490;49.072;8.804;2023-02-10T02:05:37;-2.00;84.80
8910;DHT22;4490;49.072;8.804;2023-02-10T02:08:08;-2.00;84.80
8910;DHT22;4490;49.072;8.804;2023-02-10T02:10:58;-2.00;85.50
8910;DHT22;4490;49.072;8.804;2023-02-10T02:16:32;-2.10;84.70
8910;DHT22;4490;49.072;8.804;2023-02-10T02:36:37;-2.30;84.50
8910;DHT22;4490;49.072;8.804;2023-02-10T02:39:05;-2.30;84.50
8910;DHT22;4490;49.072;8.804;2023-02-10T02:41:32;-2.40;84.40
8910;DHT22;4490;49.072;8.804;2023-02-10T02:43:58;-2.40;84.60
8910;DHT22;4490;49.072;8.804;2023-02-10T02:52:05;-2.50;85.30
8910;DHT22;4490;49.072;8.804;2023-02-10T02:54:59;-2.60;85.30
8910;DHT22;4490;49.072;8.804;2023-02-10T02:57:45;-2.60;85.40
8910;DHT22;4490;49.072;8.804;2023-02-10T03:00:16;-2.60;85.50
8910;DHT22;4490;49.072;8.804;2023-02-10T03:02:43;-2.60;85.50
8910;DHT22;4490;49.072;8.804;2023-02-10T03:05:11;-2.70;85.70
8910;DHT22;4490;49.072;8.804;2023-02-10T03:07:41;-2.70;85.80
8910;DHT22;4490;49.072;8.804;2023-02-10T03:10:07;-2.70;86.90
8910;DHT22;4490;49.072;8.804;2023-02-10T03:12:33;-2.80;86.50
8910;DHT22;4490;49.072;8.804;2023-02-10T03:14:58;-2.80;86.80
8910;DHT22;4490;49.072;8.804;2023-02-10T03:17:24;-2.80;87.20
8910;DHT22;4490;49.072;8.804;2023-02-10T03:19:50;-2.70;87.50
8910;DHT22;4490;49.072;8.804;2023-02-10T03:22:15;-2.70;87.60
8910;DHT22;4490;49.072;8.804;2023-02-10T03:24:41;-2.70;87.30
8910;DHT22;4490;49.072;8.804;2023-02-10T03:27:06;-2.70;87.20
8910;DHT22;4490;49.072;8.804;2023-02-10T03:29:32;-2.70;87.20
8910;DHT22;4490;49.072;8.804;2023-02-10T03:31:58;-2.70;87.30
8910;DHT22;4490;49.072;8.804;2023-02-10T03:34:27;-2.80;87.40
8910;DHT22;4490;49.072;8.804;2023-02-10T03:36:53;-2.80;87.70
8910;DHT22;4490;49.072;8.804;2023-02-10T03:39:18;-2.80;87.90
8910;DHT22;4490;49.072;8.804;2023-02-10T03:41:44;-2.80;87.90
8910;DHT22;4490;49.072;8.804;2023-02-10T03:44:10;-2.80;87.60
8910;DHT22;4490;49.072;8.804;2023-02-10T03:46:35;-2.80;87.50
8910;DHT22;4490;49.072;8.804;2023-02-10T03:49:03;-2.80;87.20
8910;DHT22;4490;49.072;8.804;2023-02-10T03:51:29;-2.80;87.50
8910;DHT22;4490;49.072;8.804;2023-02-10T03:53:54;-2.80;87.50
8910;DHT22;4490;49.072;8.804;2023-02-10T03:56:20;-2.80;87.50
8910;DHT22;4490;49.072;8.804;2023-02-10T03:58:46;-2.90;87.40
8910;DHT22;4490;49.072;8.804;2023-02-10T04:01:15;-2.90;87.90
8910;DHT22;4490;49.072;8.804;2023-02-10T04:03:41;-3.00;87.90
8910;DHT22;4490;49.072;8.804;2023-02-10T04:06:07;-3.00;88.20
8910;DHT22;4490;49.072;8.804;2023-02-10T04:08:33;-3.00;88.50
8910;DHT22;4490;49.072;8.804;2023-02-10T04:10:58;-3.00;88.60
8910;DHT22;4490;49.072;8.804;2023-02-10T04:13:24;-3.00;89.20
8910;DHT22;4490;49.072;8.804;2023-02-10T04:16:07;-3.00;88.80
8910;DHT22;4490;49.072;8.804;2023-02-10T04:18:33;-3.00;89.00
8910;DHT22;4490;49.072;8.804;2023-02-10T04:21:01;-3.00;88.90
8910;DHT22;4490;49.072;8.804;2023-02-10T04:23:28;-3.10;88.80
8910;DHT22;4490;49.072;8.804;2023-02-10T04:25:53;-3.10;89.10
8910;DHT22;4490;49.072;8.804;2023-02-10T04:28:19;-3.10;89.20
8910;DHT22;4490;49.072;8.804;2023-02-10T04:30:45;-3.10;89.50
8910;DHT22;4490;49.072;8.804;2023-02-10T04:33:10;-3.10;89.40
8910;DHT22;4490;49.072;8.804;2023-02-10T04:35:36;-3.10;89.50
8910;DHT22;4490;49.072;8.804;2023-02-10T04:38:02;-3.10;89.30
8910;DHT22;4490;49.072;8.804;2023-02-10T04:40:29;-3.10;89.20
8910;DHT22;4490;49.072;8.804;2023-02-10T04:42:55;-3.10;89.20
8910;DHT22;4490;49.072;8.804;2023-02-10T04:45:22;-3.20;90.00
8910;DHT22;4490;49.072;8.804;2023-02-10T04:47:48;-3.20;89.60
8910;DHT22;4490;49.072;8.804;2023-02-10T04:50:13;-3.20;89.80
8910;DHT22;4490;49.072;8.804;2023-02-10T04:52:39;-3.20;90.00
8910;DHT22;4490;49.072;8.804;2023-02-10T04:55:05;-3.20;89.90
8910;DHT22;4490;49.072;8.804;2023-02-10T04:57:30;-3.20;90.00
8910;DHT22;4490;49.072;8.804;2023-02-10T04:59:56;-3.20;90.10
8910;DHT22;4490;49.072;8.804;2023-02-10T05:02:21;-3.20;90.10
8910;DHT22;4490;49.072;8.804;2023-02-10T05:04:47;-3.20;90.10
8910;DHT22;4490;49.072;8.804;2023-02-10T05:07:12;-3.20;90.00
8910;DHT22;4490;49.072;8.804;2023-02-10T05:09:38;-3.20;89.80
8910;DHT22;4490;49.072;8.804;2023-02-10T05:12:04;-3.20;89.50
8910;DHT22;4490;49.072;8.804;2023-02-10T05:14:29;-3.20;89.40
8910;DHT22;4490;49.072;8.804;2023-02-10T05:16:55;-3.20;89.10
8910;DHT22;4490;49.072;8.804;2023-02-10T05:19:20;-3.30;89.00
8910;DHT22;4490;49.072;8.804;2023-02-10T05:21:46;-3.30;89.20
8910;DHT22;4490;49.072;8.804;2023-02-10T05:24:12;-3.40;89.10
8910;DHT22;4490;49.072;8.804;2023-02-10T05:26:37;-3.40;89.40
8910;DHT22;4490;49.072;8.804;2023-02-10T05:29:03;-3.40;89.50
8910;DHT22;4490;49.072;8.804;2023-02-10T05:31:28;-3.50;89.30
8910;DHT22;4490;49.072;8.804;2023-02-10T05:33:54;-3.60;89.40
8910;DHT22;4490;49.072;8.804;2023-02-10T05:36:20;-3.70;89.90
8910;DHT22;4490;49.072;8.804;2023-02-10T05:38:46;-3.70;90.20
8910;DHT22;4490;49.072;8.804;2023-02-10T05:41:31;-3.60;90.20
8910;DHT22;4490;49.072;8.804;2023-02-10T05:43:56;-3.70;90.20
8910;DHT22;4490;49.072;8.804;2023-02-10T05:46:22;-3.60;90.70
8910;DHT22;4490;49.072;8.804;2023-02-10T05:48:48;-3.70;90.40
8910;DHT22;4490;49.072;8.804;2023-02-10T05:51:13;-3.70;90.40
8910;DHT22;4490;49.072;8.804;2023-02-10T05:53:39;-3.70;90.40
8910;DHT22;4490;49.072;8.804;2023-02-10T05:56:05;-3.70;90.50
8910;DHT22;4490;49.072;8.804;2023-02-10T05:58:30;-3.70;90.80
8910;DHT22;4490;49.072;8.804;2023-02-10T06:01:00;-3.80;90.60
8910;DHT22;4490;49.072;8.804;2023-02-10T06:03:26;-3.80;90.50
8910;DHT22;4490;49.072;8.804;2023-02-10T06:05:52;-3.80;90.70
8910;DHT22;4490;49.072;8.804;2023-02-10T06:08:17;-3.80;90.70
8910;DHT22;4490;49.072;8.804;2023-02-10T06:10:43;-3.80;90.70
8910;DHT22;4490;49.072;8.804;2023-02-10T06:13:09;-3.80;90.70
8910;DHT22;4490;49.072;8.804;2023-02-10T06:15:34;-3.80;90.70
8910;DHT22;4490;49.072;8.804;2023-02-10T06:18:00;-3.80;90.50
8910;DHT22;4490;49.072;8.804;2023-02-10T06:20:26;-3.80;90.50
8910;DHT22;4490;49.072;8.804;2023-02-10T06:22:51;-3.80;90.40
8910;DHT22;4490;49.072;8.804;2023-02-10T06:25:17;-3.90;90.30
8910;DHT22;4490;49.072;8.804;2023-02-10T06:27:43;-3.90;90.40
8910;DHT22;4490;49.072;8.804;2023-02-10T06:30:10;-3.90;90.50
8910;DHT22;4490;49.072;8.804;2023-02-10T06:32:36;-3.90;90.50
8910;DHT22;4490;49.072;8.804;2023-02-10T06:35:01;-3.90;90.50
8910;DHT22;4490;49.072;8.804;2023-02-10T06:37:27;-3.90;90.40
8910;DHT22;4490;49.072;8.804;2023-02-10T06:39:53;-3.90;90.40
8910;DHT22;4490;49.072;8.804;2023-02-10T06:42:18;-3.90;90.40
8910;DHT22;4490;49.072;8.804;2023-02-10T06:44:44;-4.00;90.30
8910;DHT22;4490;49.072;8.804;2023-02-10T06:47:10;-4.00;90.40
8910;DHT22;4490;49.072;8.804;2023-02-10T06:49:36;-4.00;90.40
8910;DHT22;4490;49.072;8.804;2023-02-10T06:52:02;-4.00;90.50
8910;DHT22;4490;49.072;8.804;2023-02-10T06:54:28;-4.00;90.60
8910;DHT22;4490;49.072;8.804;2023-02-10T06:56:54;-4.00;90.90
8910;DHT22;4490;49.072;8.804;2023-02-10T06:59:19;-4.00;90.90
8910;DHT22;4490;49.072;8.804;2023-02-10T07:01:46;-4.00;91.10
8910;DHT22;4490;49.072;8.804;2023-02-10T07:04:11;-4.00;91.10
8910;DHT22;4490;49.072;8.804;2023-02-10T07:06:38;-4.00;91.20
8910;DHT22;4490;49.072;8.804;2023-02-10T07:09:03;-4.00;91.20
8910;DHT22;4490;49.072;8.804;2023-02-10T07:11:30;-4.00;91.60
8910;DHT22;4490;49.072;8.804;2023-02-10T07:13:56;-4.00;91.70
8910;DHT22;4490;49.072;8.804;2023-02-10T07:16:22;-3.90;91.80
8910;DHT22;4490;49.072;8.804;2023-02-10T07:18:48;-3.90;92.10
8910;DHT22;4490;49.072;8.804;2023-02-10T07:21:13;-3.90;92.40
8910;DHT22;4490;49.072;8.804;2023-02-10T07:23:39;-3.80;92.90
8910;DHT22;4490;49.072;8.804;2023-02-10T07:26:05;-3.80;93.00
8910;DHT22;4490;49.072;8.804;2023-02-10T07:28:31;-3.70;93.20
8910;DHT22;4490;49.072;8.804;2023-02-10T07:30:56;-3.70;93.30
8910;DHT22;4490;49.072;8.804;2023-02-10T07:33:22;-3.70;93.70
8910;DHT22;4490;49.072;8.804;2023-02-10T07:35:47;-3.60;93.80
8910;DHT22;4490;49.072;8.804;2023-02-10T07:38:13;-3.60;94.10
8910;DHT22;4490;49.072;8.804;2023-02-10T07:40:38;-3.50;94.30
8910;DHT22;4490;49.072;8.804;2023-02-10T07:43:04;-3.50;94.50
8910;DHT22;4490;49.072;8.804;2023-02-10T07:45:30;-3.40;94.80
8910;DHT22;4490;49.072;8.804;2023-02-10T07:47:57;-3.40;94.90
8910;DHT22;4490;49.072;8.804;2023-02-10T07:50:23;-3.30;95.10
8910;DHT22;4490;49.072;8.804;2023-02-10T07:52:49;-3.30;95.30
8910;DHT22;4490;49.072;8.804;2023-02-10T07:55:15;-3.30;95.60
8910;DHT22;4490;49.072;8.804;2023-02-10T07:57:40;-3.20;96.50
8910;DHT22;4490;49.072;8.804;2023-02-10T08:00:08;-3.10;98.50
8910;DHT22;4490;49.072;8.804;2023-02-10T08:02:33;-2.90;99.90
8910;DHT22;4490;49.072;8.804;2023-02-10T08:04:59;-2.50;99.90
8910;DHT22;4490;49.072;8.804;2023-02-10T08:07:25;-2.10;99.90
8910;DHT22;4490;49.072;8.804;2023-02-10T08:09:51;-1.40;99.90
8910;DHT22;4490;49.072;8.804;2023-02-10T08:12:16;-0.60;99.90
8910;DHT22;4490;49.072;8.804;2023-02-10T08:14:42;0.30;99.90
8910;DHT22;4490;49.072;8.804;2023-02-10T08:17:07;1.10;95.40
8910;DHT22;4490;49.072;8.804;2023-02-10T08:19:33;1.80;92.40
8910;DHT22;4490;49.072;8.804;2023-02-10T08:22:02;2.50;90.00
8910;DHT22;4490;49.072;8.804;2023-02-10T08:24:29;3.00;87.80
8910;DHT22;4490;49.072;8.804;2023-02-10T08:26:54;3.50;85.10
8910;DHT22;4490;49.072;8.804;2023-02-10T08:29:20;3.90;82.80
8910;DHT22;4490;49.072;8.804;2023-02-10T08:31:49;4.20;80.10
8910;DHT22;4490;49.072;8.804;2023-02-10T08:34:17;4.50;77.60
8910;DHT22;4490;49.072;8.804;2023-02-10T08:36:44;4.50;76.10
8910;DHT22;4490;49.072;8.804;2023-02-10T08:39:10;4.30;75.60
8910;DHT22;4490;49.072;8.804;2023-02-10T08:41:36;3.90;75.90
8910;DHT22;4490;49.072;8.804;2023-02-10T08:44:02;3.60;77.10
8910;DHT22;4490;49.072;8.804;2023-02-10T08:46:27;3.20;77.80
8910;DHT22;4490;49.072;8.804;2023-02-10T08:48:53;2.90;78.40
8910;DHT22;4490;49.072;8.804;2023-02-10T08:51:19;2.60;79.50
8910;DHT22;4490;49.072;8.804;2023-02-10T08:53:45;2.30;80.20
8910;DHT22;4490;49.072;8.804;2023-02-10T08:56:14;2.10;81.00
8910;DHT22;4490;49.072;8.804;2023-02-10T08:58:40;1.90;81.80
8910;DHT22;4490;49.072;8.804;2023-02-10T09:01:15;1.80;82.40
8910;DHT22;4490;49.072;8.804;2023-02-10T09:03:41;1.70;83.10
8910;DHT22;4490;49.072;8.804;2023-02-10T09:06:22;1.60;83.60
8910;DHT22;4490;49.072;8.804;2023-02-10T09:08:49;1.60;84.30
8910;DHT22;4490;49.072;8.804;2023-02-10T09:11:16;1.50;84.50
8910;DHT22;4490;49.072;8.804;2023-02-10T09:13:42;1.50;84.90
8910;DHT22;4490;49.072;8.804;2023-02-10T09:16:08;1.50;86.10
8910;DHT22;4490;49.072;8.804;2023-02-10T09:18:34;1.50;85.70
8910;DHT22;4490;49.072;8.804;2023-02-10T09:21:00;1.50;86.20
8910;DHT22;4490;49.072;8.804;2023-02-10T09:23:26;1.40;87.20
8910;DHT22;4490;49.072;8.804;2023-02-10T09:25:53;1.40;88.30
8910;DHT22;4490;49.072;8.804;2023-02-10T09:28:19;1.40;88.20
8910;DHT22;4490;49.072;8.804;2023-02-10T09:30:45;1.40;89.30
8910;DHT22;4490;49.072;8.804;2023-02-10T09:33:10;1.50;89.60
8910;DHT22;4490;49.072;8.804;2023-02-10T09:35:36;1.50;90.10
8910;DHT22;4490;49.072;8.804;2023-02-10T09:38:02;1.60;90.10
8910;DHT22;4490;49.072;8.804;2023-02-10T09:40:32;1.60;90.10
8910;DHT22;4490;49.072;8.804;2023-02-10T09:46:11;1.70;90.60
8910;DHT22;4490;49.072;8.804;2023-02-10T09:54:12;1.90;90.30
8910;DHT22;4490;49.072;8.804;2023-02-10T09:56:38;2.00;90.20
8910;DHT22;4490;49.072;8.804;2023-02-10T09:59:06;2.00;90.20
8910;DHT22;4490;49.072;8.804;2023-02-10T10:01:40;2.10;90.10
8910;DHT22;4490;49.072;8.804;2023-02-10T10:04:13;2.10;90.40
8910;DHT22;4490;49.072;8.804;2023-02-10T10:07:35;2.30;90.60
8910;DHT22;4490;49.072;8.804;2023-02-10T10:09:41;2.30;90.20
8910;DHT22;4490;49.072;8.804;2023-02-10T10:12:17;2.40;90.20
8910;DHT22;4490;49.072;8.804;2023-02-10T10:14:43;2.50;90.10
8910;DHT22;4490;49.072;8.804;2023-02-10T10:20:11;2.60;90.50
8910;DHT22;4490;49.072;8.804;2023-02-10T10:26:00;2.80;90.50
8910;DHT22;4490;49.072;8.804;2023-02-10T10:31:17;2.90;90.30
8910;DHT22;4490;49.072;8.804;2023-02-10T10:33:50;3.00;90.30
8910;DHT22;4490;49.072;8.804;2023-02-10T10:36:18;3.00;90.20
8910;DHT22;4490;49.072;8.804;2023-02-10T10:38:52;3.10;90.20
8910;DHT22;4490;49.072;8.804;2023-02-10T10:41:22;3.10;90.10
8910;DHT22;4490;49.072;8.804;2023-02-10T10:43:54;3.20;89.80
8910;DHT22;4490;49.072;8.804;2023-02-10T10:49:06;3.40;89.80
8910;DHT22;4490;49.072;8.804;2023-02-10T10:51:32;3.40;89.20
8910;DHT22;4490;49.072;8.804;2023-02-10T10:54:00;3.50;89.20
8910;DHT22;4490;49.072;8.804;2023-02-10T10:57:03;3.60;88.20
8910;DHT22;4490;49.072;8.804;2023-02-10T10:59:40;3.70;88.20
8910;DHT22;4490;49.072;8.804;2023-02-10T11:02:13;3.70;88.30
8910;DHT22;4490;49.072;8.804;2023-02-10T11:04:39;3.80;87.90
8910;DHT22;4490;49.072;8.804;2023-02-10T11:07:12;3.80;87.90
8910;DHT22;4490;49.072;8.804;2023-02-10T11:09:49;3.90;89.10
8910;DHT22;4490;49.072;8.804;2023-02-10T11:12:34;4.00;88.30
8910;DHT22;4490;49.072;8.804;2023-02-10T11:15:05;4.10;87.80
8910;DHT22;4490;49.072;8.804;2023-02-10T11:17:46;4.20;87.60
8910;DHT22;4490;49.072;8.804;2023-02-10T11:22:39;4.40;86.60
8910;DHT22;4490;49.072;8.804;2023-02-10T11:25:37;4.50;85.60
8910;DHT22;4490;49.072;8.804;2023-02-10T11:28:06;4.60;84.70
8910;DHT22;4490;49.072;8.804;2023-02-10T11:30:35;4.70;84.00
8910;DHT22;4490;49.072;8.804;2023-02-10T11:33:02;4.80;83.10
8910;DHT22;4490;49.072;8.804;2023-02-10T11:35:29;4.90;82.00
8910;DHT22;4490;49.072;8.804;2023-02-10T11:38:05;5.00;81.20
8910;DHT22;4490;49.072;8.804;2023-02-10T11:43:14;5.20;81.70
8910;DHT22;4490;49.072;8.804;2023-02-10T11:46:00;5.20;82.00
8910;DHT22;4490;49.072;8.804;2023-02-10T11:48:28;5.30;81.50
8910;DHT22;4490;49.072;8.804;2023-02-10T11:51:13;5.40;80.30
8910;DHT22;4490;49.072;8.804;2023-02-10T11:53:40;5.50;79.90
8910;DHT22;4490;49.072;8.804;2023-02-10T11:56:22;5.50;79.60
8910;DHT22;4490;49.072;8.804;2023-02-10T12:02:00;5.70;78.40
8910;DHT22;4490;49.072;8.804;2023-02-10T12:04:47;5.80;77.40
8910;DHT22;4490;49.072;8.804;2023-02-10T12:15:48;6.20;77.10
8910;DHT22;4490;49.072;8.804;2023-02-10T12:18:56;6.30;77.40
8910;DHT22;4490;49.072;8.804;2023-02-10T12:26:48;6.80;75.30
8910;DHT22;4490;49.072;8.804;2023-02-10T12:35:13;7.60;78.00
8910;DHT22;4490;49.072;8.804;2023-02-10T12:51:25;10.00;73.10
8910;DHT22;4490;49.072;8.804;2023-02-10T12:54:02;10.30;71.90
8910;DHT22;4490;49.072;8.804;2023-02-10T12:56:35;10.60;69.70
8910;DHT22;4490;49.072;8.804;2023-02-10T12:59:09;10.90;67.60
8910;DHT22;4490;49.072;8.804;2023-02-10T13:01:40;11.10;67.10
8910;DHT22;4490;49.072;8.804;2023-02-10T13:06:59;11.70;65.90
8910;DHT22;4490;49.072;8.804;2023-02-10T13:09:33;11.90;65.70
8910;DHT22;4490;49.072;8.804;2023-02-10T13:14:40;12.30;64.10
8910;DHT22;4490;49.072;8.804;2023-02-10T13:17:07;12.50;60.80
8910;DHT22;4490;49.072;8.804;2023-02-10T13:22:13;12.70;61.10
8910;DHT22;4490;49.072;8.804;2023-02-10T13:24:51;12.80;60.30
8910;DHT22;4490;49.072;8.804;2023-02-10T13:35:57;12.50;59.60
8910;DHT22;4490;49.072;8.804;2023-02-10T13:38:24;12.30;59.90
8910;DHT22;4490;49.072;8.804;2023-02-10T13:40:56;12.10;59.10
8910;DHT22;4490;49.072;8.804;2023-02-10T13:43:42;11.90;59.00
8910;DHT22;4490;49.072;8.804;2023-02-10T13:46:20;11.70;59.10
8910;DHT22;4490;49.072;8.804;2023-02-10T13:48:52;11.50;58.70
8910;DHT22;4490;49.072;8.804;2023-02-10T13:51:32;11.20;59.00
8910;DHT22;4490;49.072;8.804;2023-02-10T13:53:58;11.00;58.90
8910;DHT22;4490;49.072;8.804;2023-02-10T13:56:27;10.70;59.40
8910;DHT22;4490;49.072;8.804;2023-02-10T13:59:02;10.60;59.60
8910;DHT22;4490;49.072;8.804;2023-02-10T14:06:52;10.50;59.60
8910;DHT22;4490;49.072;8.804;2023-02-10T14:09:21;10.50;59.00
8910;DHT22;4490;49.072;8.804;2023-02-10T14:12:01;10.50;59.30
8910;DHT22;4490;49.072;8.804;2023-02-10T14:14:54;10.50;59.40
8910;DHT22;4490;49.072;8.804;2023-02-10T14:17:24;10.60;59.10
8910;DHT22;4490;49.072;8.804;2023-02-10T14:19:57;10.60;59.50
8910;DHT22;4490;49.072;8.804;2023-02-10T14:22:34;10.80;59.80
8910;DHT22;4490;49.072;8.804;2023-02-10T14:27:53;11.30;58.00
8910;DHT22;4490;49.072;8.804;2023-02-10T14:30:28;11.50;59.20
8910;DHT22;4490;49.072;8.804;2023-02-10T14:32:56;11.80;58.90
8910;DHT22;4490;49.072;8.804;2023-02-10T14:35:25;12.10;59.20
8910;DHT22;4490;49.072;8.804;2023-02-10T14:37:53;12.40;58.70
8910;DHT22;4490;49.072;8.804;2023-02-10T14:40:20;12.50;57.40
8910;DHT22;4490;49.072;8.804;2023-02-10T14:42:47;12.70;56.80
8910;DHT22;4490;49.072;8.804;2023-02-10T14:45:31;13.00;56.30
8910;DHT22;4490;49.072;8.804;2023-02-10T14:48:00;13.20;55.70
8910;DHT22;4490;49.072;8.804;2023-02-10T14:50:36;13.40;55.50
8910;DHT22;4490;49.072;8.804;2023-02-10T14:53:04;13.50;55.40
8910;DHT22;4490;49.072;8.804;2023-02-10T14:55:35;13.60;55.80
8910;DHT22;4490;49.072;8.804;2023-02-10T15:00:38;13.80;54.50
8910;DHT22;4490;49.072;8.804;2023-02-10T15:03:04;13.70;54.50
8910;DHT22;4490;49.072;8.804;2023-02-10T15:05:46;13.70;54.00
8910;DHT22;4490;49.072;8.804;2023-02-10T15:08:17;13.70;54.00
8910;DHT22;4490;49.072;8.804;2023-02-10T15:10:47;13.50;54.00
8910;DHT22;4490;49.072;8.804;2023-02-10T15:13:17;13.30;54.10
8910;DHT22;4490;49.072;8.804;2023-02-10T15:15:49;13.10;54.20
8910;DHT22;4490;49.072;8.804;2023-02-10T15:18:20;12.80;54.10
8910;DHT22;4490;49.072;8.804;2023-02-10T15:20:54;12.50;54.00
8910;DHT22;4490;49.072;8.804;2023-02-10T15:23:19;12.20;54.20
8910;DHT22;4490;49.072;8.804;2023-02-10T15:25:45;11.70;54.70
8910;DHT22;4490;49.072;8.804;2023-02-10T15:30:56;11.10;56.00
8910;DHT22;4490;49.072;8.804;2023-02-10T15:33:26;10.80;56.80
8910;DHT22;4490;49.072;8.804;2023-02-10T15:35:54;10.50;57.40
8910;DHT22;4490;49.072;8.804;2023-02-10T15:38:19;10.30;57.70
8910;DHT22;4490;49.072;8.804;2023-02-10T15:40:56;10.10;57.90
8910;DHT22;4490;49.072;8.804;2023-02-10T15:43:28;10.00;58.40
8910;DHT22;4490;49.072;8.804;2023-02-10T15:46:16;9.70;59.50
8910;DHT22;4490;49.072;8.804;2023-02-10T15:48:42;9.60;59.90
8910;DHT22;4490;49.072;8.804;2023-02-10T15:51:21;9.30;60.00
8910;DHT22;4490;49.072;8.804;2023-02-10T15:53:48;9.20;60.70
8910;DHT22;4490;49.072;8.804;2023-02-10T15:56:14;8.90;60.70
8910;DHT22;4490;49.072;8.804;2023-02-10T15:58:39;8.70;60.90
8910;DHT22;4490;49.072;8.804;2023-02-10T16:01:05;8.50;61.30
8910;DHT22;4490;49.072;8.804;2023-02-10T16:03:31;8.30;61.60
8910;DHT22;4490;49.072;8.804;2023-02-10T16:05:56;8.10;61.90
8910;DHT22;4490;49.072;8.804;2023-02-10T16:08:27;7.90;62.10
8910;DHT22;4490;49.072;8.804;2023-02-10T16:10:53;7.70;62.60
8910;DHT22;4490;49.072;8.804;2023-02-10T16:13:19;7.40;63.00
8910;DHT22;4490;49.072;8.804;2023-02-10T16:15:46;7.30;63.40
8910;DHT22;4490;49.072;8.804;2023-02-10T16:18:17;7.10;63.80
8910;DHT22;4490;49.072;8.804;2023-02-10T16:20:44;6.90;64.10
8910;DHT22;4490;49.072;8.804;2023-02-10T16:23:15;6.70;64.30
8910;DHT22;4490;49.072;8.804;2023-02-10T16:25:41;6.60;64.90
8910;DHT22;4490;49.072;8.804;2023-02-10T16:28:09;6.40;65.20
8910;DHT22;4490;49.072;8.804;2023-02-10T16:30:34;6.20;65.50
8910;DHT22;4490;49.072;8.804;2023-02-10T16:33:01;6.10;65.80
8910;DHT22;4490;49.072;8.804;2023-02-10T16:35:27;6.00;66.00
8910;DHT22;4490;49.072;8.804;2023-02-10T16:37:53;5.90;66.30
8910;DHT22;4490;49.072;8.804;2023-02-10T16:40:34;5.70;66.60
8910;DHT22;4490;49.072;8.804;2023-02-10T16:43:00;5.70;67.50
8910;DHT22;4490;49.072;8.804;2023-02-10T16:45:28;5.50;67.40
8910;DHT22;4490;49.072;8.804;2023-02-10T16:47:56;5.40;67.80
8910;DHT22;4490;49.072;8.804;2023-02-10T16:50:30;5.30;68.30
8910;DHT22;4490;49.072;8.804;2023-02-10T16:52:56;5.30;68.90
8910;DHT22;4490;49.072;8.804;2023-02-10T16:55:22;5.20;69.90
8910;DHT22;4490;49.072;8.804;2023-02-10T16:57:48;5.10;69.40
8910;DHT22;4490;49.072;8.804;2023-02-10T17:00:15;5.00;69.50
8910;DHT22;4490;49.072;8.804;2023-02-10T17:02:41;5.00;69.80
8910;DHT22;4490;49.072;8.804;2023-02-10T17:05:08;4.90;70.10
8910;DHT22;4490;49.072;8.804;2023-02-10T17:07:35;4.90;70.30
8910;DHT22;4490;49.072;8.804;2023-02-10T17:10:02;4.80;70.70
8910;DHT22;4490;49.072;8.804;2023-02-10T17:12:27;4.80;70.70
8910;DHT22;4490;49.072;8.804;2023-02-10T17:14:53;4.70;71.10
8910;DHT22;4490;49.072;8.804;2023-02-10T17:17:19;4.60;71.80
8910;DHT22;4490;49.072;8.804;2023-02-10T17:19:45;4.60;71.50
8910;DHT22;4490;49.072;8.804;2023-02-10T17:22:11;4.50;71.70
8910;DHT22;4490;49.072;8.804;2023-02-10T17:24:36;4.40;71.90
8910;DHT22;4490;49.072;8.804;2023-02-10T17:27:02;4.40;72.00
8910;DHT22;4490;49.072;8.804;2023-02-10T17:29:27;4.30;72.00
8910;DHT22;4490;49.072;8.804;2023-02-10T17:31:53;4.30;72.20
8910;DHT22;4490;49.072;8.804;2023-02-10T17:34:19;4.20;72.30
8910;DHT22;4490;49.072;8.804;2023-02-10T17:36:45;4.20;72.50
8910;DHT22;4490;49.072;8.804;2023-02-10T17:39:17;4.10;72.60
8910;DHT22;4490;49.072;8.804;2023-02-10T17:41:53;4.00;72.70
8910;DHT22;4490;49.072;8.804;2023-02-10T17:44:20;3.90;72.90
8910;DHT22;4490;49.072;8.804;2023-02-10T17:46:45;3.80;72.90
8910;DHT22;4490;49.072;8.804;2023-02-10T17:49:14;3.80;73.00
8910;DHT22;4490;49.072;8.804;2023-02-10T17:51:41;3.70;73.40
8910;DHT22;4490;49.072;8.804;2023-02-10T17:54:07;3.60;73.30
8910;DHT22;4490;49.072;8.804;2023-02-10T17:56:34;3.50;73.40
8910;DHT22;4490;49.072;8.804;2023-02-10T17:59:02;3.40;74.40
8910;DHT22;4490;49.072;8.804;2023-02-10T18:01:29;3.40;73.90
8910;DHT22;4490;49.072;8.804;2023-02-10T18:03:56;3.30;74.10
8910;DHT22;4490;49.072;8.804;2023-02-10T18:06:23;3.30;74.00
8910;DHT22;4490;49.072;8.804;2023-02-10T18:08:51;3.20;74.10
8910;DHT22;4490;49.072;8.804;2023-02-10T18:11:17;3.20;74.30
8910;DHT22;4490;49.072;8.804;2023-02-10T18:13:43;3.10;74.30